South Seaville, New Jersey
Current Conditions -  °F | °C
As of 9:35 PM on Thursday 20 Nov 2014 (Local Time) from KWWD Reporting Station
Clear Clear  
Wind Chill: 34°   Ceiling: Unl
Heat Index: 39°   Visibility: 10mi
Dew Point: 19°   Wind: 8mph
Humidity: 45%   Direction: 320°NW
Pressure: 30.02"   Gusts: NA
Location:  39.18°N, 74.76°W
Report Text: KWWD 210235Z AUTO 32007KT 10SM CLR 04/M07 A3002 RMK AO1
Loading
Personal Weather Stations






























Interactive Weather Map New forecast layout! Learn more

10-Day Weather Forecast

Advertisements
Track Severe Weather on mobile